Time,TemperatureF,DewpointF,PressureIn,WindDirection,WindDirectionDegrees,WindSpeedMPH,WindSpeedGustMPH,Humidity,HourlyPrecipIn,Conditions,Clouds,dailyrainin,SoftwareType,DateUTC
2013-12-04 00:01:00,67.2,67.2,29.80,SSW,200,6.9,6.9,100,0.00,CLR,OVC,0.19,WeatherDisplay:10.37,2013-12-04 05:01:00,
2013-12-04 00:06:00,67.2,67.2,29.80,SSW,195,6.9,6.9,100,0.00,CLR,OVC,0.19,WeatherDisplay:10.37,2013-12-04 05:06:00,
2013-12-04 00:11:00,67.2,67.2,29.80,SSW,192,6.9,6.9,100,0.00,CLR,OVC,0.19,WeatherDisplay:10.37,2013-12-04 05:11:00,
2013-12-04 00:16:00,67.2,67.2,29.80,SSW,199,9.2,9.2,100,0.00,CLR,OVC,0.19,WeatherDisplay:10.37,2013-12-04 05:16:00,
2013-12-04 00:21:00,67.2,67.2,29.80,SSW,213,10.9,10.9,100,0.00,CLR,OVC,0.19,WeatherDisplay:10.37,2013-12-04 05:21:00,
2013-12-04 00:26:00,67.3,67.3,29.80,SSW,193,5.8,5.8,100,0.00,CLR,OVC,0.19,WeatherDisplay:10.37,2013-12-04 05:26:00,
2013-12-04 00:31:00,67.2,67.2,29.80,SSW,203,11.5,11.5,100,0.00,CLR,OVC,0.19,WeatherDisplay:10.37,2013-12-04 05:31:00,
2013-12-04 00:36:00,67.3,67.3,29.80,SSW,209,4.6,4.6,100,0.00,CLR,OVC,0.19,WeatherDisplay:10.37,2013-12-04 05:36:00,
2013-12-04 00:41:00,67.5,67.5,29.80,SSW,212,6.9,6.9,100,0.00,CLR,OVC,0.19,WeatherDisplay:10.37,2013-12-04 05:41:00,
2013-12-04 00:46:00,67.5,67.5,29.80,SW,219,4.6,4.8,100,0.00,CLR,OVC,0.19,WeatherDisplay:10.37,2013-12-04 05:46:00,
2013-12-04 00:51:00,67.4,67.4,29.79,SSW,205,5.0,5.0,100,0.00,CLR,OVC,0.19,WeatherDisplay:10.37,2013-12-04 05:51:00,
2013-12-04 00:56:00,67.2,67.2,29.79,SSW,206,11.5,11.5,100,0.00,CLR,OVC,0.19,WeatherDisplay:10.37,2013-12-04 05:56:00,
2013-12-04 01:01:00,67.2,67.2,29.80,SSW,196,8.1,8.1,100,0.00,CLR,OVC,0.00,WeatherDisplay:10.37,2013-12-04 06:01:00,
2013-12-04 01:06:00,67.4,67.4,29.80,SSW,200,8.1,8.1,100,0.00,CLR,OVC,0.00,WeatherDisplay:10.37,2013-12-04 06:06:00,
2013-12-04 01:11:00,67.5,67.5,29.80,South,184,6.9,6.9,100,0.00,CLR,OVC,0.00,WeatherDisplay:10.37,2013-12-04 06:11:00,
2013-12-04 01:16:00,67.5,67.5,29.80,SSW,208,2.3,2.3,100,0.00,CLR,OVC,0.00,WeatherDisplay:10.37,2013-12-04 06:16:00,
2013-12-04 01:21:00,67.5,67.5,29.80,SSW,213,5.8,5.8,100,0.00,CLR,OVC,0.00,WeatherDisplay:10.37,2013-12-04 06:21:00,
2013-12-04 01:26:00,67.4,67.4,29.80,SSW,198,5.8,5.8,100,0.00,CLR,OVC,0.00,WeatherDisplay:10.37,2013-12-04 06:26:00,
2013-12-04 01:31:00,67.7,67.7,29.80,SW,217,3.5,3.5,100,0.00,CLR,OVC,0.00,WeatherDisplay:10.37,2013-12-04 06:31:00,
2013-12-04 01:36:00,67.3,67.3,29.80,SSW,200,9.2,9.2,100,0.00,CLR,OVC,0.00,WeatherDisplay:10.37,2013-12-04 06:36:00,
2013-12-04 01:41:00,67.5,67.5,29.80,SSW,202,10.4,10.4,100,0.00,CLR,OVC,0.00,WeatherDisplay:10.37,2013-12-04 06:41:00,
2013-12-04 01:46:00,67.5,67.5,29.80,SW,220,2.3,2.4,100,0.00,CLR,OVC,0.00,WeatherDisplay:10.37,2013-12-04 06:46:00,
2013-12-04 01:51:00,67.4,67.4,29.80,SSW,196,11.5,11.5,100,0.00,CLR,OVC,0.00,WeatherDisplay:10.37,2013-12-04 06:51:00,
2013-12-04 01:56:00,67.5,67.5,29.80,SSW,213,8.1,8.1,100,0.00,CLR,OVC,0.00,WeatherDisplay:10.37,2013-12-04 06:56:00,
2013-12-04 02:01:00,67.6,67.6,29.81,SW,219,5.8,5.8,100,0.00,CLR,OVC,0.00,WeatherDisplay:10.37,2013-12-04 07:01:00,
2013-12-04 02:06:00,67.6,67.6,29.81,North,1,8.1,8.1,100,0.00,CLR,OVC,0.00,WeatherDisplay:10.37,2013-12-04 07:06:00,
2013-12-04 02:11:00,67.6,67.6,29.81,SW,223,5.8,5.8,100,0.00,CLR,OVC,0.00,WeatherDisplay:10.37,2013-12-04 07:11:00,
2013-12-04 02:16:00,67.5,67.5,29.81,SW,224,8.1,8.1,100,0.00,CLR,OVC,0.00,WeatherDisplay:10.37,2013-12-04 07:16:00,
2013-12-04 02:21:00,67.6,67.6,29.81,SSW,210,4.6,4.9,100,0.00,CLR,OVC,0.00,WeatherDisplay:10.37,2013-12-04 07:21:00,
2013-12-04 02:26:00,67.6,67.6,29.81,South,191,4.6,4.6,100,0.00,CLR,OVC,0.00,WeatherDisplay:10.37,2013-12-04 07:26:00,
2013-12-04 02:31:00,67.3,67.3,29.81,SW,215,6.9,6.9,100,0.00,CLR,OVC,0.00,WeatherDisplay:10.37,2013-12-04 07:31:00,
2013-12-04 02:36:00,67.3,67.3,29.81,SSW,213,5.6,5.6,100,0.00,CLR,OVC,0.00,WeatherDisplay:10.37,2013-12-04 07:36:00,
2013-12-04 02:41:00,67.5,67.5,29.81,SSW,203,4.6,4.6,100,0.00,CLR,OVC,0.00,WeatherDisplay:10.37,2013-12-04 07:41:00,
2013-12-04 02:46:00,67.7,67.7,29.81,SW,232,3.7,3.7,100,0.00,CLR,OVC,0.00,WeatherDisplay:10.37,2013-12-04 07:46:00,
2013-12-04 02:51:00,67.5,67.5,29.81,SSW,205,3.5,4.4,100,0.00,CLR,OVC,0.00,WeatherDisplay:10.37,2013-12-04 07:51:00,
2013-12-04 02:56:00,67.5,67.5,29.81,South,185,6.0,6.0,100,0.00,CLR,OVC,0.00,WeatherDisplay:10.37,2013-12-04 07:56:00,
2013-12-04 03:01:00,67.5,67.5,29.81,SSW,210,3.5,3.5,100,0.00,CLR,OVC,0.00,WeatherDisplay:10.37,2013-12-04 08:01:00,
2013-12-04 03:06:00,67.4,67.4,29.81,South,191,6.9,6.9,100,0.00,CLR,OVC,0.00,WeatherDisplay:10.37,2013-12-04 08:06:00,
2013-12-04 03:11:00,67.3,67.3,29.81,SSW,203,5.8,5.8,100,0.00,CLR,OVC,0.00,WeatherDisplay:10.37,2013-12-04 08:11:00,
2013-12-04 03:16:00,67.5,67.5,29.81,SSW,199,4.6,4.6,100,0.00,CLR,OVC,0.00,WeatherDisplay:10.37,2013-12-04 08:16:00,
2013-12-04 03:21:00,67.5,67.5,29.82,SW,215,3.5,3.5,100,0.00,CLR,OVC,0.00,WeatherDisplay:10.37,2013-12-04 08:21:00,
2013-12-04 03:26:00,67.5,67.5,29.81,SW,219,2.3,4.3,100,0.00,CLR,OVC,0.00,WeatherDisplay:10.37,2013-12-04 08:26:00,
2013-12-04 03:31:00,67.3,67.3,29.81,SW,215,8.1,8.1,100,0.00,CLR,OVC,0.00,WeatherDisplay:10.37,2013-12-04 08:31:00,
2013-12-04 03:36:00,67.6,67.6,29.81,North,2,2.3,2.3,100,0.00,CLR,OVC,0.00,WeatherDisplay:10.37,2013-12-04 08:36:00,
2013-12-04 03:41:00,67.6,67.6,29.81,SSW,192,3.5,3.5,100,0.00,CLR,OVC,0.00,WeatherDisplay:10.37,2013-12-04 08:41:00,
2013-12-04 03:46:00,67.6,67.6,29.82,SSW,203,4.6,4.6,100,0.00,CLR,OVC,0.00,WeatherDisplay:10.37,2013-12-04 08:46:00,
2013-12-04 03:51:00,67.5,67.5,29.82,SSW,199,5.8,5.8,100,0.00,CLR,OVC,0.00,WeatherDisplay:10.37,2013-12-04 08:51:00,
2013-12-04 03:56:00,67.3,67.3,29.81,South,189,8.1,8.1,100,0.00,CLR,OVC,0.00,WeatherDisplay:10.37,2013-12-04 08:56:00,
2013-12-04 04:01:00,67.5,67.5,29.81,SSW,196,3.5,3.8,100,0.00,CLR,OVC,0.00,WeatherDisplay:10.37,2013-12-04 09:01:00,
2013-12-04 04:06:00,67.5,67.5,29.82,South,189,4.6,4.6,100,0.00,CLR,OVC,0.00,WeatherDisplay:10.37,2013-12-04 09:06:00,
2013-12-04 04:11:00,67.5,67.5,29.82,North,3,5.8,5.8,100,0.00,CLR,OVC,0.00,WeatherDisplay:10.37,2013-12-04 09:11:00,
2013-12-04 04:16:00,67.5,67.5,29.82,SSW,208,5.2,5.2,100,0.00,CLR,OVC,0.00,WeatherDisplay:10.37,2013-12-04 09:16:00,
2013-12-04 04:21:00,67.5,67.5,29.82,SSW,209,4.6,4.6,100,0.00,CLR,OVC,0.00,WeatherDisplay:10.37,2013-12-04 09:21:00,
2013-12-04 04:26:00,67.6,67.6,29.82,SSW,209,5.8,5.8,100,0.00,CLR,OVC,0.00,WeatherDisplay:10.37,2013-12-04 09:26:00,
2013-12-04 04:31:00,67.7,67.7,29.82,SSW,205,5.4,5.4,100,0.00,CLR,OVC,0.00,WeatherDisplay:10.37,2013-12-04 09:31:00,
2013-12-04 04:36:00,67.7,67.7,29.82,SSW,192,4.6,4.6,100,0.00,CLR,OVC,0.00,WeatherDisplay:10.37,2013-12-04 09:36:00,
2013-12-04 04:41:00,67.7,67.7,29.82,SSW,196,3.5,3.5,100,0.00,CLR,OVC,0.00,WeatherDisplay:10.37,2013-12-04 09:41:00,
2013-12-04 04:46:00,67.7,67.7,29.82,South,182,5.8,5.8,100,0.00,CLR,OVC,0.00,WeatherDisplay:10.37,2013-12-04 09:46:00,
2013-12-04 04:51:00,67.8,67.8,29.82,SSE,151,6.5,6.5,100,0.00,CLR,OVC,0.00,WeatherDisplay:10.37,2013-12-04 09:51:00,
2013-12-04 04:56:00,67.9,67.9,29.82,SSW,202,3.5,3.5,100,0.00,CLR,OVC,0.00,WeatherDisplay:10.37,2013-12-04 09:56:00,
2013-12-04 05:01:00,67.9,67.9,29.82,South,181,3.5,3.5,100,0.00,CLR,OVC,0.00,WeatherDisplay:10.37,2013-12-04 10:01:00,
2013-12-04 05:06:00,67.7,67.7,29.82,South,176,4.6,4.6,100,0.00,CLR,OVC,0.00,WeatherDisplay:10.37,2013-12-04 10:06:00,
2013-12-04 05:11:00,67.6,67.6,29.81,South,178,6.9,6.9,100,0.00,CLR,OVC,0.00,WeatherDisplay:10.37,2013-12-04 10:11:00,
2013-12-04 05:16:00,67.6,67.6,29.81,South,176,4.6,4.6,100,0.00,CLR,OVC,0.00,WeatherDisplay:10.37,2013-12-04 10:16:00,
2013-12-04 05:21:00,67.6,67.6,29.82,South,181,3.5,3.5,100,0.00,CLR,OVC,0.00,WeatherDisplay:10.37,2013-12-04 10:21:00,
2013-12-04 05:26:00,67.6,67.6,29.82,South,185,4.6,4.6,100,0.00,CLR,OVC,0.00,WeatherDisplay:10.37,2013-12-04 10:26:00,
2013-12-04 05:31:00,67.5,67.5,29.82,SSW,193,8.1,8.1,100,0.00,CLR,OVC,0.00,WeatherDisplay:10.37,2013-12-04 10:31:00,
2013-12-04 05:36:00,67.5,67.5,29.82,South,186,6.9,6.9,100,0.00,CLR,OVC,0.00,WeatherDisplay:10.37,2013-12-04 10:36:00,
2013-12-04 05:41:00,67.7,67.7,29.82,SSW,199,3.9,3.9,100,0.00,CLR,OVC,0.00,WeatherDisplay:10.37,2013-12-04 10:41:00,
2013-12-04 05:46:00,67.6,67.6,29.82,South,184,4.6,4.6,100,0.00,CLR,OVC,0.00,WeatherDisplay:10.37,2013-12-04 10:46:00,
2013-12-04 05:51:00,67.6,67.6,29.82,South,186,4.6,4.6,100,0.00,CLR,OVC,0.00,WeatherDisplay:10.37,2013-12-04 10:51:00,
2013-12-04 05:56:00,67.5,67.5,29.82,South,184,6.9,6.9,100,0.00,CLR,OVC,0.00,WeatherDisplay:10.37,2013-12-04 10:56:00,
2013-12-04 06:02:00,67.5,67.5,29.82,South,176,2.0,7.0,100,0.00,CLR,OVC,0.00,WeatherDisplay:10.37,2013-12-04 11:02:00,
2013-12-04 06:07:00,67.5,67.5,29.82,South,183,2.0,6.0,100,0.00,CLR,OVC,0.00,WeatherDisplay:10.37,2013-12-04 11:07:00,
2013-12-04 06:12:00,67.5,67.5,29.82,North,5,5.8,5.8,100,0.00,CLR,OVC,0.00,WeatherDisplay:10.37,2013-12-04 11:12:00,
2013-12-04 06:17:00,67.6,67.6,29.82,SE,144,4.6,4.6,100,0.00,CLR,OVC,0.00,WeatherDisplay:10.37,2013-12-04 11:17:00,
2013-12-04 06:22:00,67.6,67.6,29.82,South,179,3.5,3.5,100,0.00,CLR,OVC,0.00,WeatherDisplay:10.37,2013-12-04 11:22:00,
2013-12-04 06:27:00,67.6,67.6,29.82,South,185,4.6,4.6,100,0.00,CLR,OVC,0.00,WeatherDisplay:10.37,2013-12-04 11:27:00,
2013-12-04 06:32:00,67.5,67.5,29.83,SSW,198,4.6,4.6,100,0.00,CLR,OVC,0.00,WeatherDisplay:10.37,2013-12-04 11:32:00,
2013-12-04 06:37:00,67.5,67.5,29.83,South,174,5.8,5.8,100,0.00,CLR,OVC,0.00,WeatherDisplay:10.37,2013-12-04 11:37:00,
2013-12-04 06:42:00,67.5,67.5,29.83,South,174,6.9,6.9,100,0.00,CLR,OVC,0.00,WeatherDisplay:10.37,2013-12-04 11:42:00,
2013-12-04 06:47:00,67.6,67.6,29.83,North,5,4.6,4.6,100,0.00,CLR,OVC,0.00,WeatherDisplay:10.37,2013-12-04 11:47:00,
2013-12-04 06:52:00,67.6,67.6,29.83,North,5,0.1,0.1,100,0.00,CLR,OVC,0.00,WeatherDisplay:10.37,2013-12-04 11:52:00,
2013-12-04 06:57:00,67.6,67.6,29.84,SSW,198,5.8,5.8,100,0.00,CLR,OVC,0.00,WeatherDisplay:10.37,2013-12-04 11:57:00,
2013-12-04 07:02:00,67.7,67.7,29.84,South,172,3.5,3.5,100,0.00,CLR,OVC,0.00,WeatherDisplay:10.37,2013-12-04 12:02:00,
2013-12-04 07:07:00,67.6,67.6,29.84,South,186,5.0,7.0,100,0.00,CLR,OVC,0.00,WeatherDisplay:10.37,2013-12-04 12:07:00,
2013-12-04 07:12:00,67.7,67.7,29.84,South,188,2.0,5.0,100,0.00,,OVC,0.00,WeatherDisplay:10.37,2013-12-04 12:12:00,
2013-12-04 07:17:00,67.7,67.7,29.84,SSW,207,1.0,6.0,100,0.00,,OVC,0.00,WeatherDisplay:10.37,2013-12-04 12:17:00,
2013-12-04 07:22:00,67.9,67.9,29.84,SSW,206,2.3,2.3,100,0.00,CLR,OVC,0.00,WeatherDisplay:10.37,2013-12-04 12:22:00,
2013-12-04 07:27:00,67.8,67.8,29.84,South,189,3.5,3.5,100,0.00,CLR,OVC,0.00,WeatherDisplay:10.37,2013-12-04 12:27:00,
2013-12-04 07:32:00,67.9,67.9,29.85,SSW,213,5.8,5.8,100,0.00,CLR,OVC,0.00,WeatherDisplay:10.37,2013-12-04 12:32:00,
2013-12-04 07:37:00,67.8,67.8,29.85,SSW,200,3.5,3.5,100,0.00,CLR,OVC,0.00,WeatherDisplay:10.37,2013-12-04 12:37:00,
2013-12-04 07:42:00,67.9,67.9,29.85,SSW,198,2.3,2.3,100,0.00,CLR,OVC,0.00,WeatherDisplay:10.37,2013-12-04 12:42:00,
2013-12-04 07:47:00,67.8,67.8,29.85,SSW,203,2.7,2.7,100,0.00,CLR,OVC,0.00,WeatherDisplay:10.37,2013-12-04 12:47:00,
2013-12-04 07:52:00,67.9,67.9,29.86,SSW,193,3.5,3.5,100,0.00,CLR,OVC,0.00,WeatherDisplay:10.37,2013-12-04 12:52:00,
2013-12-04 07:57:00,68.0,68.0,29.86,North,6,2.3,2.3,100,0.00,CLR,OVC,0.00,WeatherDisplay:10.37,2013-12-04 12:57:00,
2013-12-04 08:02:00,68.0,68.0,29.86,South,182,3.5,3.5,100,0.00,CLR,OVC,0.00,WeatherDisplay:10.37,2013-12-04 13:02:00,
2013-12-04 08:07:00,67.9,67.9,29.87,South,191,1.0,6.0,100,0.00,,OVC,0.00,WeatherDisplay:10.37,2013-12-04 13:07:00,
2013-12-04 08:12:00,68.0,68.0,29.87,SSW,195,2.0,7.0,100,0.00,,OVC,0.00,WeatherDisplay:10.37,2013-12-04 13:12:00,
2013-12-04 08:17:00,68.0,68.0,29.87,SSW,192,2.0,7.0,100,0.00,,OVC,0.00,WeatherDisplay:10.37,2013-12-04 13:17:00,
2013-12-04 08:22:00,68.1,68.1,29.87,South,183,1.0,8.0,100,0.00,,OVC,0.00,WeatherDisplay:10.37,2013-12-04 13:22:00,
2013-12-04 08:27:00,68.1,68.1,29.88,South,183,2.0,6.0,100,0.00,,OVC,0.00,WeatherDisplay:10.37,2013-12-04 13:27:00,
2013-12-04 08:32:00,68.1,68.1,29.88,South,183,2.0,8.0,100,0.00,,OVC,0.00,WeatherDisplay:10.37,2013-12-04 13:32:00,
2013-12-04 08:37:00,68.2,68.2,29.88,South,182,2.0,7.0,100,0.00,,OVC,0.00,WeatherDisplay:10.37,2013-12-04 13:37:00,
2013-12-04 08:42:00,68.3,68.3,29.88,South,191,3.0,6.0,100,0.00,,OVC,0.00,WeatherDisplay:10.37,2013-12-04 13:42:00,
2013-12-04 08:47:00,68.3,68.3,29.88,South,188,6.0,8.0,100,0.00,,OVC,0.00,WeatherDisplay:10.37,2013-12-04 13:47:00,
2013-12-04 08:52:00,68.3,68.3,29.89,South,172,5.0,13.0,100,0.00,,OVC,0.00,WeatherDisplay:10.37,2013-12-04 13:52:00,
2013-12-04 08:57:00,68.3,68.3,29.89,South,182,3.0,8.0,100,0.00,,OVC,0.00,WeatherDisplay:10.37,2013-12-04 13:57:00,
2013-12-04 09:02:00,68.3,68.3,29.89,South,190,5.0,9.0,100,0.00,,OVC,0.00,WeatherDisplay:10.37,2013-12-04 14:02:00,
2013-12-04 09:07:00,68.5,68.5,29.89,South,190,3.0,9.0,100,0.00,,OVC,0.00,WeatherDisplay:10.37,2013-12-04 14:07:00,
2013-12-04 09:12:00,68.3,68.3,29.90,SSW,197,3.0,9.0,100,0.00,,OVC,0.00,WeatherDisplay:10.37,2013-12-04 14:12:00,
2013-12-04 09:17:00,68.6,68.6,29.90,South,175,3.5,3.5,100,0.00,CLR,OVC,0.00,WeatherDisplay:10.37,2013-12-04 14:17:00,
2013-12-04 09:22:00,68.9,68.9,29.90,South,186,5.8,5.8,100,0.00,CLR,OVC,0.00,WeatherDisplay:10.37,2013-12-04 14:22:00,
2013-12-04 09:27:00,68.9,68.9,29.90,South,189,3.5,3.5,100,0.00,CLR,OVC,0.00,WeatherDisplay:10.37,2013-12-04 14:27:00,
2013-12-04 09:32:00,69.2,69.2,29.91,South,171,3.5,3.5,100,0.00,CLR,OVC,0.00,WeatherDisplay:10.37,2013-12-04 14:32:00,
2013-12-04 09:37:00,69.2,69.2,29.91,South,172,5.8,5.8,100,0.00,CLR,OVC,0.00,WeatherDisplay:10.37,2013-12-04 14:37:00,
2013-12-04 09:42:00,68.9,68.9,29.91,South,186,13.8,13.8,100,0.00,CLR,OVC,0.00,WeatherDisplay:10.37,2013-12-04 14:42:00,
2013-12-04 09:47:00,68.7,68.7,29.92,SW,215,9.2,9.2,100,0.00,CLR,OVC,0.00,WeatherDisplay:10.37,2013-12-04 14:47:00,
2013-12-04 09:52:00,68.9,68.9,29.92,SSW,209,4.6,4.6,100,0.00,CLR,OVC,0.00,WeatherDisplay:10.37,2013-12-04 14:52:00,
2013-12-04 09:57:00,69.2,69.2,29.92,South,189,5.8,5.8,100,0.00,CLR,OVC,0.00,WeatherDisplay:10.37,2013-12-04 14:57:00,
2013-12-04 10:02:00,69.2,69.2,29.93,South,184,6.9,6.9,100,0.00,CLR,OVC,0.00,WeatherDisplay:10.37,2013-12-04 15:02:00,
2013-12-04 10:07:00,69.3,69.3,29.93,SSE,164,4.6,4.6,100,0.00,CLR,OVC,0.00,WeatherDisplay:10.37,2013-12-04 15:07:00,
2013-12-04 10:12:00,69.3,69.3,29.93,SSW,195,3.5,3.5,100,0.00,CLR,OVC,0.00,WeatherDisplay:10.37,2013-12-04 15:12:00,
2013-12-04 10:17:00,69.2,69.2,29.93,South,174,8.1,8.1,100,0.00,CLR,OVC,0.00,WeatherDisplay:10.37,2013-12-04 15:17:00,
2013-12-04 10:22:00,69.3,69.3,29.93,South,179,5.8,5.8,100,0.00,CLR,OVC,0.00,WeatherDisplay:10.37,2013-12-04 15:22:00,
2013-12-04 10:27:00,69.2,69.2,29.94,South,186,9.2,9.2,100,0.00,CLR,OVC,0.00,WeatherDisplay:10.37,2013-12-04 15:27:00,
2013-12-04 10:32:00,69.2,69.2,29.94,SSE,157,2.3,2.3,100,0.00,CLR,OVC,0.00,WeatherDisplay:10.37,2013-12-04 15:32:00,
2013-12-04 10:37:00,69.3,69.3,29.94,SSW,192,8.1,8.1,100,0.00,CLR,OVC,0.00,WeatherDisplay:10.37,2013-12-04 15:37:00,
2013-12-04 10:42:00,69.6,69.6,29.94,SSE,147,4.8,4.8,100,0.00,CLR,OVC,0.00,WeatherDisplay:10.37,2013-12-04 15:42:00,
2013-12-04 10:47:00,70.0,70.0,29.94,SSW,199,4.6,4.6,100,0.00,CLR,OVC,0.00,WeatherDisplay:10.37,2013-12-04 15:47:00,
2013-12-04 10:52:00,70.2,70.2,29.94,South,176,6.9,6.9,100,0.00,CLR,OVC,0.00,WeatherDisplay:10.37,2013-12-04 15:52:00,
2013-12-04 10:57:00,70.5,70.2,29.94,SW,222,4.6,4.6,99,0.00,CLR,OVC,0.00,WeatherDisplay:10.37,2013-12-04 15:57:00,
2013-12-04 11:02:00,70.6,70.3,29.94,SSW,201,6.0,11.0,99,0.00,,OVC,0.00,WeatherDisplay:10.37,2013-12-04 16:02:00,
2013-12-04 11:07:00,70.7,70.1,29.94,South,191,5.0,12.0,98,0.00,,OVC,0.00,WeatherDisplay:10.37,2013-12-04 16:07:00,
2013-12-04 11:12:00,70.7,69.8,29.94,South,188,8.1,8.1,97,0.00,CLR,OVC,0.00,WeatherDisplay:10.37,2013-12-04 16:12:00,
2013-12-04 11:17:00,71.2,70.3,29.94,SSE,158,6.9,6.9,97,0.00,CLR,OVC,0.00,WeatherDisplay:10.37,2013-12-04 16:17:00,
2013-12-04 11:22:00,71.4,70.2,29.93,SSW,196,9.2,9.2,96,0.00,CLR,OVC,0.00,WeatherDisplay:10.37,2013-12-04 16:22:00,
2013-12-04 11:27:00,71.4,70.2,29.93,SSE,165,6.3,6.3,96,0.00,CLR,OVC,0.00,WeatherDisplay:10.37,2013-12-04 16:27:00,
2013-12-04 11:32:00,71.5,70.0,29.92,South,191,11.5,11.5,95,0.00,CLR,OVC,0.00,WeatherDisplay:10.37,2013-12-04 16:32:00,
2013-12-04 11:37:00,71.8,70.0,29.92,SSW,195,12.7,12.7,94,0.00,CLR,OVC,0.00,WeatherDisplay:10.37,2013-12-04 16:37:00,
2013-12-04 11:42:00,72.1,69.9,29.92,SSW,195,9.4,9.4,93,0.00,CLR,OVC,0.00,WeatherDisplay:10.37,2013-12-04 16:42:00,
2013-12-04 11:47:00,72.9,70.4,29.92,SSW,212,4.6,4.6,92,0.00,CLR,OVC,0.00,WeatherDisplay:10.37,2013-12-04 16:47:00,
2013-12-04 11:52:00,72.9,70.1,29.92,SSW,192,10.4,10.4,91,0.00,CLR,OVC,0.00,WeatherDisplay:10.37,2013-12-04 16:52:00,
2013-12-04 11:57:00,73.0,70.2,29.92,SSW,198,9.2,9.2,91,0.00,CLR,OVC,0.00,WeatherDisplay:10.37,2013-12-04 16:57:00,
2013-12-04 12:02:00,73.2,70.1,29.92,South,185,9.2,9.2,90,0.00,CLR,OVC,0.00,WeatherDisplay:10.37,2013-12-04 17:02:00,
2013-12-04 12:07:00,73.3,70.2,29.91,SSW,205,8.1,8.1,90,0.00,CLR,OVC,0.00,WeatherDisplay:10.37,2013-12-04 17:07:00,
2013-12-04 12:12:00,73.8,70.4,29.91,SSE,164,6.9,6.9,89,0.00,CLR,OVC,0.00,WeatherDisplay:10.37,2013-12-04 17:12:00,
2013-12-04 12:17:00,74.3,70.5,29.91,South,189,5.0,9.0,88,0.00,,OVC,0.00,WeatherDisplay:10.37,2013-12-04 17:17:00,
2013-12-04 12:22:00,73.9,69.8,29.91,SSW,202,11.5,11.5,87,0.00,CLR,OVC,0.00,WeatherDisplay:10.37,2013-12-04 17:22:00,
2013-12-04 12:27:00,73.8,69.7,29.90,South,179,8.1,8.1,87,0.00,CLR,OVC,0.00,WeatherDisplay:10.37,2013-12-04 17:27:00,
2013-12-04 12:32:00,73.9,69.8,29.90,SSW,193,6.9,6.9,87,0.00,CLR,OVC,0.00,WeatherDisplay:10.37,2013-12-04 17:32:00,
2013-12-04 12:37:00,73.9,69.8,29.90,South,179,9.2,9.2,87,0.00,CLR,OVC,0.00,WeatherDisplay:10.37,2013-12-04 17:37:00,
2013-12-04 12:42:00,74.2,69.8,29.90,SSW,206,10.4,10.4,86,0.00,CLR,OVC,0.00,WeatherDisplay:10.37,2013-12-04 17:42:00,
2013-12-04 12:47:00,74.0,69.6,29.89,SSE,168,12.7,12.7,86,0.00,CLR,OVC,0.00,WeatherDisplay:10.37,2013-12-04 17:47:00,
2013-12-04 12:52:00,74.7,70.2,29.88,South,185,6.9,6.9,86,0.00,CLR,OVC,0.00,WeatherDisplay:10.37,2013-12-04 17:52:00,
2013-12-04 12:57:00,74.7,69.9,29.88,SSW,196,7.3,7.3,85,0.00,CLR,OVC,0.00,WeatherDisplay:10.37,2013-12-04 17:57:00,
2013-12-04 13:02:00,74.9,69.7,29.88,SSW,206,6.9,6.9,84,0.00,CLR,OVC,0.00,WeatherDisplay:10.37,2013-12-04 18:02:00,
2013-12-04 13:07:00,75.2,70.1,29.88,SSW,208,5.8,5.8,84,0.00,CLR,OVC,0.00,WeatherDisplay:10.37,2013-12-04 18:07:00,
2013-12-04 13:12:00,75.8,70.3,29.88,SSE,165,6.9,6.9,83,0.00,CLR,OVC,0.00,WeatherDisplay:10.37,2013-12-04 18:12:00,
2013-12-04 13:17:00,75.9,70.0,29.87,SSE,164,9.2,9.2,82,0.00,CLR,OVC,0.00,WeatherDisplay:10.37,2013-12-04 18:17:00,
2013-12-04 13:22:00,75.6,69.7,29.87,SSW,205,10.5,10.5,82,0.00,CLR,OVC,0.00,WeatherDisplay:10.37,2013-12-04 18:22:00,
2013-12-04 13:27:00,74.7,69.2,29.87,SSW,209,8.1,8.1,83,0.00,CLR,OVC,0.00,WeatherDisplay:10.37,2013-12-04 18:27:00,
2013-12-04 13:32:00,75.5,69.6,29.86,South,189,9.2,9.2,82,0.00,CLR,OVC,0.00,WeatherDisplay:10.37,2013-12-04 18:32:00,
2013-12-04 13:37:00,75.5,69.6,29.86,South,169,8.1,8.1,82,0.00,CLR,OVC,0.00,WeatherDisplay:10.37,2013-12-04 18:37:00,
2013-12-04 13:42:00,75.6,69.3,29.86,SSW,205,4.6,4.6,81,0.00,CLR,OVC,0.00,WeatherDisplay:10.37,2013-12-04 18:42:00,
2013-12-04 13:47:00,76.2,69.5,29.86,South,186,6.9,6.9,80,0.00,CLR,OVC,0.00,WeatherDisplay:10.37,2013-12-04 18:47:00,
2013-12-04 13:52:00,76.1,69.5,29.85,SSE,152,8.1,8.1,80,0.00,CLR,OVC,0.00,WeatherDisplay:10.37,2013-12-04 18:52:00,
2013-12-04 13:57:00,76.0,69.4,29.85,SSW,203,5.8,5.8,80,0.00,CLR,OVC,0.00,WeatherDisplay:10.37,2013-12-04 18:57:00,
2013-12-04 14:02:00,76.0,69.1,29.85,South,184,10.4,10.4,79,0.00,CLR,OVC,0.00,WeatherDisplay:10.37,2013-12-04 19:02:00,
2013-12-04 14:07:00,76.0,69.4,29.85,NNE,13,8.1,8.1,80,0.00,CLR,OVC,0.00,WeatherDisplay:10.37,2013-12-04 19:07:00,
2013-12-04 14:12:00,76.3,69.7,29.84,SSE,148,2.3,2.3,80,0.00,CLR,OVC,0.00,WeatherDisplay:10.37,2013-12-04 19:12:00,
2013-12-04 14:17:00,77.1,70.0,29.84,SSW,212,8.1,8.1,79,0.00,CLR,OVC,0.00,WeatherDisplay:10.37,2013-12-04 19:17:00,
2013-12-04 14:22:00,76.6,69.5,29.84,South,171,3.5,3.5,79,0.00,CLR,OVC,0.00,WeatherDisplay:10.37,2013-12-04 19:22:00,
2013-12-04 14:27:00,76.8,69.8,29.84,NNE,13,5.8,5.8,79,0.00,CLR,OVC,0.00,WeatherDisplay:10.37,2013-12-04 19:27:00,
2013-12-04 14:32:00,76.8,69.8,29.83,South,171,8.1,8.1,79,0.00,CLR,OVC,0.00,WeatherDisplay:10.37,2013-12-04 19:32:00,
2013-12-04 14:37:00,76.8,69.8,29.83,South,181,9.2,9.2,79,0.00,CLR,OVC,0.00,WeatherDisplay:10.37,2013-12-04 19:37:00,
2013-12-04 14:42:00,76.9,69.6,29.83,South,185,5.8,5.8,78,0.00,CLR,OVC,0.00,WeatherDisplay:10.37,2013-12-04 19:42:00,
2013-12-04 14:47:00,76.8,69.4,29.83,SSW,208,6.9,6.9,78,0.00,CLR,OVC,0.00,WeatherDisplay:10.37,2013-12-04 19:47:00,
2013-12-04 14:52:00,77.1,69.7,29.83,South,185,13.8,13.8,78,0.00,CLR,OVC,0.00,WeatherDisplay:10.37,2013-12-04 19:52:00,
2013-12-04 14:57:00,76.8,69.4,29.83,South,175,6.9,6.9,78,0.00,CLR,OVC,0.00,WeatherDisplay:10.37,2013-12-04 19:57:00,
2013-12-04 15:02:00,76.8,69.8,29.83,SSE,155,5.8,5.8,79,0.00,CLR,OVC,0.00,WeatherDisplay:10.37,2013-12-04 20:02:00,
2013-12-04 15:07:00,76.4,69.8,29.83,SSE,168,9.2,9.2,80,0.00,CLR,OVC,0.00,WeatherDisplay:10.37,2013-12-04 20:07:00,
2013-12-04 15:12:00,76.5,69.5,29.83,SSE,168,8.1,8.1,79,0.00,CLR,OVC,0.00,WeatherDisplay:10.37,2013-12-04 20:12:00,
2013-12-04 15:17:00,76.7,69.7,29.83,SSW,199,5.8,5.8,79,0.00,CLR,OVC,0.00,WeatherDisplay:10.37,2013-12-04 20:17:00,
2013-12-04 15:22:00,76.7,69.3,29.83,SSW,198,5.8,5.8,78,0.00,CLR,OVC,0.00,WeatherDisplay:10.37,2013-12-04 20:22:00,
2013-12-04 15:27:00,76.4,69.4,29.83,South,179,6.9,6.9,79,0.00,CLR,OVC,0.00,WeatherDisplay:10.37,2013-12-04 20:27:00,
2013-12-04 15:32:00,76.1,69.5,29.83,South,174,6.9,6.9,80,0.00,CLR,OVC,0.00,WeatherDisplay:10.37,2013-12-04 20:32:00,
2013-12-04 15:37:00,75.9,69.6,29.83,SSE,164,5.8,5.8,81,0.00,CLR,OVC,0.00,WeatherDisplay:10.37,2013-12-04 20:37:00,
2013-12-04 15:42:00,75.5,69.6,29.82,South,186,4.6,4.6,82,0.00,CLR,OVC,0.00,WeatherDisplay:10.37,2013-12-04 20:42:00,
2013-12-04 15:47:00,75.8,69.6,29.82,South,171,5.8,5.8,81,0.00,CLR,OVC,0.00,WeatherDisplay:10.37,2013-12-04 20:47:00,
2013-12-04 15:52:00,75.9,69.7,29.82,NNE,14,2.3,2.3,81,0.00,CLR,OVC,0.00,WeatherDisplay:10.37,2013-12-04 20:52:00,
2013-12-04 15:57:00,76.0,69.7,29.82,SSE,150,6.9,6.9,81,0.00,CLR,OVC,0.00,WeatherDisplay:10.37,2013-12-04 20:57:00,
2013-12-04 16:02:00,75.7,69.4,29.82,South,182,8.1,8.1,81,0.00,CLR,OVC,0.00,WeatherDisplay:10.37,2013-12-04 21:02:00,
2013-12-04 16:07:00,75.7,69.4,29.82,South,174,5.8,5.8,81,0.00,CLR,OVC,0.00,WeatherDisplay:10.37,2013-12-04 21:07:00,
2013-12-04 16:12:00,75.7,69.4,29.82,SSE,151,3.5,3.5,81,0.00,CLR,OVC,0.00,WeatherDisplay:10.37,2013-12-04 21:12:00,
2013-12-04 16:17:00,75.4,69.5,29.82,SSE,164,6.9,6.9,82,0.00,CLR,OVC,0.00,WeatherDisplay:10.37,2013-12-04 21:17:00,
2013-12-04 16:22:00,75.2,69.4,29.82,SSE,168,4.6,4.6,82,0.00,CLR,OVC,0.00,WeatherDisplay:10.37,2013-12-04 21:22:00,
2013-12-04 16:27:00,75.1,69.6,29.82,South,171,5.8,5.8,83,0.00,CLR,OVC,0.00,WeatherDisplay:10.37,2013-12-04 21:27:00,
2013-12-04 16:32:00,75.0,69.5,29.82,South,178,5.8,5.8,83,0.00,CLR,OVC,0.00,WeatherDisplay:10.37,2013-12-04 21:32:00,
2013-12-04 16:37:00,74.8,69.7,29.82,South,169,6.9,6.9,84,0.00,CLR,OVC,0.00,WeatherDisplay:10.37,2013-12-04 21:37:00,
2013-12-04 16:42:00,74.7,69.6,29.82,SSE,151,5.8,5.8,84,0.00,CLR,OVC,0.00,WeatherDisplay:10.37,2013-12-04 21:42:00,
2013-12-04 16:47:00,74.4,69.6,29.82,SE,143,5.8,5.8,85,0.00,CLR,OVC,0.00,WeatherDisplay:10.37,2013-12-04 21:47:00,
2013-12-04 16:52:00,74.2,69.4,29.82,SSE,152,4.6,4.6,85,0.00,CLR,OVC,0.00,WeatherDisplay:10.37,2013-12-04 21:52:00,
2013-12-04 16:57:00,74.2,69.7,29.82,NNE,15,3.5,3.5,86,0.00,CLR,OVC,0.00,WeatherDisplay:10.37,2013-12-04 21:57:00,
2013-12-04 17:02:00,74.0,69.6,29.82,SSE,155,4.6,4.6,86,0.00,CLR,OVC,0.00,WeatherDisplay:10.37,2013-12-04 22:02:00,
2013-12-04 17:07:00,74.0,69.9,29.82,SSE,164,4.6,4.6,87,0.00,CLR,OVC,0.00,WeatherDisplay:10.37,2013-12-04 22:07:00,
2013-12-04 17:12:00,73.8,69.7,29.82,SSE,154,3.5,3.5,87,0.00,CLR,OVC,0.00,WeatherDisplay:10.37,2013-12-04 22:12:00,
2013-12-04 17:17:00,73.7,69.6,29.82,SSE,151,3.5,3.5,87,0.00,CLR,OVC,0.00,WeatherDisplay:10.37,2013-12-04 22:17:00,
2013-12-04 17:22:00,73.7,69.9,29.82,SSE,151,3.5,3.5,88,0.00,CLR,OVC,0.00,WeatherDisplay:10.37,2013-12-04 22:22:00,
2013-12-04 17:27:00,73.5,69.7,29.83,SE,137,3.9,3.9,88,0.00,CLR,OVC,0.00,WeatherDisplay:10.37,2013-12-04 22:27:00,
2013-12-04 17:32:00,73.2,69.8,29.83,SSE,150,3.5,3.5,89,0.00,CLR,OVC,0.00,WeatherDisplay:10.37,2013-12-04 22:32:00,
2013-12-04 17:37:00,73.1,69.6,29.82,SE,144,4.6,4.6,89,0.00,CLR,OVC,0.00,WeatherDisplay:10.37,2013-12-04 22:37:00,
2013-12-04 17:42:00,72.7,69.6,29.83,SSE,150,6.4,6.4,90,0.00,CLR,OVC,0.00,WeatherDisplay:10.37,2013-12-04 22:42:00,
2013-12-04 17:47:00,72.5,69.7,29.83,SSE,164,8.1,8.1,91,0.00,CLR,OVC,0.00,WeatherDisplay:10.37,2013-12-04 22:47:00,
2013-12-04 17:52:00,72.4,69.6,29.83,SSE,154,2.3,2.9,91,0.00,CLR,OVC,0.00,WeatherDisplay:10.37,2013-12-04 22:52:00,
2013-12-04 17:57:00,72.2,69.4,29.83,SE,141,5.8,5.8,91,0.00,CLR,OVC,0.00,WeatherDisplay:10.37,2013-12-04 22:57:00,
2013-12-04 18:02:00,71.8,69.4,29.83,SSE,148,4.6,4.6,92,0.00,CLR,OVC,0.00,WeatherDisplay:10.37,2013-12-04 23:02:00,
2013-12-04 18:07:00,71.5,69.4,29.83,SE,144,5.8,5.8,93,0.00,CLR,OVC,0.00,WeatherDisplay:10.37,2013-12-04 23:07:00,
2013-12-04 18:12:00,71.5,69.7,29.83,SE,140,4.6,4.6,94,0.00,CLR,OVC,0.00,WeatherDisplay:10.37,2013-12-04 23:12:00,
2013-12-04 18:17:00,71.3,69.8,29.83,SSE,148,6.9,6.9,95,0.00,CLR,OVC,0.00,WeatherDisplay:10.37,2013-12-04 23:17:00,
2013-12-04 18:22:00,71.3,70.1,29.83,SE,144,5.8,5.8,96,0.00,CLR,OVC,0.00,WeatherDisplay:10.37,2013-12-04 23:22:00,
2013-12-04 18:27:00,71.1,69.9,29.84,SSE,152,9.2,9.2,96,0.00,CLR,OVC,0.00,WeatherDisplay:10.37,2013-12-04 23:27:00,
2013-12-04 18:32:00,70.9,70.0,29.84,SE,141,6.9,6.9,97,0.00,CLR,OVC,0.00,WeatherDisplay:10.37,2013-12-04 23:32:00,
2013-12-04 18:37:00,70.8,70.2,29.84,SSE,148,8.1,8.1,98,0.00,CLR,OVC,0.00,WeatherDisplay:10.37,2013-12-04 23:37:00,
2013-12-04 18:42:00,70.5,69.9,29.84,SSE,147,10.4,10.4,98,0.00,CLR,OVC,0.00,WeatherDisplay:10.37,2013-12-04 23:42:00,
2013-12-04 18:47:00,70.6,70.3,29.84,SE,145,7.3,7.3,99,0.00,CLR,OVC,0.00,WeatherDisplay:10.37,2013-12-04 23:47:00,
2013-12-04 18:52:00,70.4,70.1,29.84,SE,141,5.8,5.8,99,0.00,CLR,OVC,0.00,WeatherDisplay:10.37,2013-12-04 23:52:00,
2013-12-04 18:57:00,70.2,70.2,29.84,SSE,147,8.1,8.1,100,0.00,CLR,OVC,0.00,WeatherDisplay:10.37,2013-12-04 23:57:00,
2013-12-04 19:02:00,70.1,70.1,29.84,SE,137,6.9,6.9,100,0.00,CLR,OVC,0.00,WeatherDisplay:10.37,2013-12-05 00:02:00,
2013-12-04 19:07:00,69.9,69.9,29.84,SE,145,8.1,8.1,100,0.00,CLR,OVC,0.00,WeatherDisplay:10.37,2013-12-05 00:07:00,
2013-12-04 19:12:00,70.0,70.0,29.85,SE,138,5.8,5.8,100,0.00,CLR,OVC,0.00,WeatherDisplay:10.37,2013-12-05 00:12:00,
2013-12-04 19:17:00,69.9,69.9,29.85,SE,134,4.6,4.6,100,0.00,CLR,OVC,0.00,WeatherDisplay:10.37,2013-12-05 00:17:00,
2013-12-04 19:22:00,69.7,69.7,29.85,SE,145,5.8,5.8,100,0.00,CLR,OVC,0.00,WeatherDisplay:10.37,2013-12-05 00:22:00,
2013-12-04 19:27:00,69.7,69.7,29.85,SE,137,5.8,5.8,100,0.00,CLR,OVC,0.00,WeatherDisplay:10.37,2013-12-05 00:27:00,
2013-12-04 19:32:00,69.7,69.7,29.86,SSE,164,3.5,3.5,100,0.00,CLR,OVC,0.00,WeatherDisplay:10.37,2013-12-05 00:32:00,
2013-12-04 19:37:00,69.7,69.7,29.86,SSE,157,5.8,5.8,100,0.00,CLR,OVC,0.00,WeatherDisplay:10.37,2013-12-05 00:37:00,
2013-12-04 19:42:00,69.7,69.7,29.86,SSE,158,9.2,9.2,100,0.00,CLR,OVC,0.00,WeatherDisplay:10.37,2013-12-05 00:42:00,
2013-12-04 19:47:00,69.7,69.7,29.86,SSE,147,4.6,4.6,100,0.00,CLR,OVC,0.00,WeatherDisplay:10.37,2013-12-05 00:47:00,
2013-12-04 19:52:00,69.8,69.8,29.86,SSE,154,4.6,4.6,100,0.00,CLR,OVC,0.00,WeatherDisplay:10.37,2013-12-05 00:52:00,
2013-12-04 19:57:00,69.7,69.7,29.86,SSE,162,6.9,6.9,100,0.00,CLR,OVC,0.00,WeatherDisplay:10.37,2013-12-05 00:57:00,
2013-12-04 20:02:00,69.8,69.8,29.87,South,189,6.9,6.9,100,0.00,CLR,OVC,0.00,WeatherDisplay:10.37,2013-12-05 01:02:00,
2013-12-04 20:07:00,69.7,69.7,29.87,SSE,162,6.9,6.9,100,0.00,CLR,OVC,0.00,WeatherDisplay:10.37,2013-12-05 01:07:00,
2013-12-04 20:12:00,69.7,69.7,29.87,SE,131,9.8,9.8,100,0.00,CLR,OVC,0.00,WeatherDisplay:10.37,2013-12-05 01:12:00,
2013-12-04 20:17:00,69.6,69.6,29.87,SSE,160,6.9,6.9,100,0.00,CLR,OVC,0.00,WeatherDisplay:10.37,2013-12-05 01:17:00,
2013-12-04 20:22:00,69.7,69.7,29.87,SSE,165,6.9,6.9,100,0.00,CLR,OVC,0.00,WeatherDisplay:10.37,2013-12-05 01:22:00,
2013-12-04 20:27:00,69.7,69.7,29.87,SSE,160,4.6,4.6,100,0.00,CLR,OVC,0.00,WeatherDisplay:10.37,2013-12-05 01:27:00,
2013-12-04 20:32:00,69.6,69.6,29.87,SSE,152,6.9,6.9,100,0.00,CLR,OVC,0.00,WeatherDisplay:10.37,2013-12-05 01:32:00,
2013-12-04 20:37:00,69.6,69.6,29.87,SE,145,5.8,5.8,100,0.00,CLR,OVC,0.00,WeatherDisplay:10.37,2013-12-05 01:37:00,
2013-12-04 20:42:00,69.6,69.6,29.87,SSE,157,8.1,8.1,100,0.00,CLR,OVC,0.00,WeatherDisplay:10.37,2013-12-05 01:42:00,
2013-12-04 20:47:00,69.6,69.6,29.88,South,179,5.8,5.8,100,0.00,CLR,OVC,0.00,WeatherDisplay:10.37,2013-12-05 01:47:00,
2013-12-04 20:52:00,69.7,69.7,29.88,South,171,4.6,4.6,100,0.00,CLR,OVC,0.00,WeatherDisplay:10.37,2013-12-05 01:52:00,
2013-12-04 20:57:00,69.7,69.7,29.88,SSE,155,4.6,4.6,100,0.00,CLR,OVC,0.00,WeatherDisplay:10.37,2013-12-05 01:57:00,
2013-12-04 21:02:00,69.7,69.7,29.88,South,172,5.8,5.8,100,0.00,CLR,OVC,0.00,WeatherDisplay:10.37,2013-12-05 02:02:00,
2013-12-04 21:07:00,69.7,69.7,29.89,SSE,165,3.5,3.5,100,0.00,CLR,OVC,0.00,WeatherDisplay:10.37,2013-12-05 02:07:00,
2013-12-04 21:12:00,69.6,69.6,29.89,South,179,6.9,6.9,100,0.00,CLR,OVC,0.00,WeatherDisplay:10.37,2013-12-05 02:12:00,
2013-12-04 21:17:00,69.6,69.6,29.89,SSE,151,3.9,3.9,100,0.00,CLR,OVC,0.00,WeatherDisplay:10.37,2013-12-05 02:17:00,
2013-12-04 21:22:00,69.6,69.6,29.90,SSE,168,5.8,5.8,100,0.00,CLR,OVC,0.00,WeatherDisplay:10.37,2013-12-05 02:22:00,
2013-12-04 21:27:00,69.6,69.6,29.90,South,178,6.9,6.9,100,0.00,CLR,OVC,0.00,WeatherDisplay:10.37,2013-12-05 02:27:00,
2013-12-04 21:32:00,69.6,69.6,29.90,South,184,8.1,8.1,100,0.00,CLR,OVC,0.00,WeatherDisplay:10.37,2013-12-05 02:32:00,
2013-12-04 21:37:00,69.6,69.6,29.90,South,174,3.5,3.5,100,0.00,CLR,OVC,0.00,WeatherDisplay:10.37,2013-12-05 02:37:00,
2013-12-04 21:42:00,69.7,69.7,29.90,SSE,158,5.8,5.8,100,0.00,CLR,OVC,0.00,WeatherDisplay:10.37,2013-12-05 02:42:00,
2013-12-04 21:47:00,69.7,69.7,29.90,SSE,157,6.3,6.3,100,0.00,CLR,OVC,0.00,WeatherDisplay:10.37,2013-12-05 02:47:00,
2013-12-04 21:52:00,69.7,69.7,29.90,South,174,5.8,5.8,100,0.00,CLR,OVC,0.00,WeatherDisplay:10.37,2013-12-05 02:52:00,
2013-12-04 21:57:00,69.7,69.7,29.91,NNE,20,6.9,6.9,100,0.00,CLR,OVC,0.00,WeatherDisplay:10.37,2013-12-05 02:57:00,
2013-12-04 22:02:00,69.7,69.7,29.91,South,175,5.8,5.8,100,0.00,CLR,OVC,0.00,WeatherDisplay:10.37,2013-12-05 03:02:00,
2013-12-04 22:07:00,69.6,69.6,29.90,SSW,192,5.8,5.8,100,0.00,CLR,OVC,0.00,WeatherDisplay:10.37,2013-12-05 03:07:00,
2013-12-04 22:12:00,69.7,69.7,29.91,SSE,150,5.8,5.8,100,0.00,CLR,OVC,0.00,WeatherDisplay:10.37,2013-12-05 03:12:00,
2013-12-04 22:17:00,69.6,69.6,29.91,South,181,4.6,4.6,100,0.00,CLR,OVC,0.00,WeatherDisplay:10.37,2013-12-05 03:17:00,
2013-12-04 22:22:00,69.6,69.6,29.91,South,181,6.9,6.9,100,0.00,CLR,OVC,0.00,WeatherDisplay:10.37,2013-12-05 03:22:00,
2013-12-04 22:27:00,69.7,69.7,29.91,SSW,192,4.6,4.6,100,0.00,CLR,OVC,0.00,WeatherDisplay:10.37,2013-12-05 03:27:00,
2013-12-04 22:32:00,69.8,69.8,29.91,South,181,4.6,4.6,100,0.00,CLR,OVC,0.00,WeatherDisplay:10.37,2013-12-05 03:32:00,
2013-12-04 22:37:00,69.8,69.8,29.91,SSE,150,3.7,3.7,100,0.00,CLR,OVC,0.00,WeatherDisplay:10.37,2013-12-05 03:37:00,
2013-12-04 22:42:00,69.7,69.7,29.91,South,171,4.6,4.6,100,0.00,CLR,OVC,0.00,WeatherDisplay:10.37,2013-12-05 03:42:00,
2013-12-04 22:47:00,69.8,69.8,29.91,South,176,4.3,4.3,100,0.00,CLR,OVC,0.00,WeatherDisplay:10.37,2013-12-05 03:47:00,
2013-12-04 22:52:00,69.8,69.8,29.91,NNE,21,4.6,4.6,100,0.00,CLR,OVC,0.00,WeatherDisplay:10.37,2013-12-05 03:52:00,
2013-12-04 22:57:00,69.8,69.8,29.92,SSE,154,5.8,5.8,100,0.00,CLR,OVC,0.00,WeatherDisplay:10.37,2013-12-05 03:57:00,
2013-12-04 23:02:00,69.8,69.8,29.92,SSE,162,4.6,4.6,100,0.00,CLR,OVC,0.00,WeatherDisplay:10.37,2013-12-05 04:02:00,
2013-12-04 23:07:00,69.8,69.8,29.92,SSE,151,3.7,3.7,100,0.00,CLR,OVC,0.00,WeatherDisplay:10.37,2013-12-05 04:07:00,
2013-12-04 23:12:00,69.7,69.7,29.92,South,169,3.1,3.1,100,0.00,CLR,OVC,0.00,WeatherDisplay:10.37,2013-12-05 04:12:00,
2013-12-04 23:17:00,69.7,69.7,29.93,SSW,196,5.8,5.8,100,0.00,CLR,OVC,0.00,WeatherDisplay:10.37,2013-12-05 04:17:00,
2013-12-04 23:22:00,69.7,69.7,29.93,SSW,208,4.6,4.6,100,0.00,CLR,OVC,0.00,WeatherDisplay:10.37,2013-12-05 04:22:00,
2013-12-04 23:27:00,69.7,69.7,29.93,South,171,6.9,6.9,100,0.00,CLR,OVC,0.00,WeatherDisplay:10.37,2013-12-05 04:27:00,
2013-12-04 23:32:00,69.7,69.7,29.92,South,171,3.5,3.5,100,0.00,CLR,OVC,0.00,WeatherDisplay:10.37,2013-12-05 04:32:00,
2013-12-04 23:37:00,69.7,69.7,29.93,South,178,3.5,3.5,100,0.00,CLR,OVC,0.00,WeatherDisplay:10.37,2013-12-05 04:37:00,
2013-12-04 23:42:00,69.8,69.8,29.93,South,181,2.3,2.3,100,0.00,CLR,OVC,0.00,WeatherDisplay:10.37,2013-12-05 04:42:00,
2013-12-04 23:47:00,69.8,69.8,29.93,NNE,22,3.5,3.5,100,0.00,CLR,OVC,0.00,WeatherDisplay:10.37,2013-12-05 04:47:00,
2013-12-04 23:52:00,69.7,69.7,29.93,South,185,5.8,5.8,100,0.00,CLR,OVC,0.00,WeatherDisplay:10.37,2013-12-05 04:52:00,
2013-12-04 23:57:00,69.8,69.8,29.93,South,172,5.8,5.8,100,0.00,CLR,OVC,0.00,WeatherDisplay:10.37,2013-12-05 04:57:00,